createdAt,value
2022-08-25T00:00:05.746Z,21.38
2022-08-25T00:03:08.388Z,21.30
2022-08-25T00:06:11.238Z,21.26
2022-08-25T00:09:15.754Z,21.26
2022-08-25T00:12:17.523Z,21.16
2022-08-25T00:15:19.429Z,21.13
2022-08-25T00:18:21.339Z,21.12
2022-08-25T00:21:25.390Z,21.09
2022-08-25T00:24:27.769Z,20.95
2022-08-25T00:27:29.433Z,20.84
2022-08-25T00:30:31.238Z,20.82
2022-08-25T00:33:33.921Z,20.90
2022-08-25T00:36:37.020Z,20.83
2022-08-25T00:39:40.060Z,20.79
2022-08-25T00:42:41.874Z,20.65
2022-08-25T00:45:43.685Z,20.65
2022-08-25T00:48:50.773Z,20.67
2022-08-25T00:52:06.225Z,20.73
2022-08-25T00:55:15.138Z,20.77
2022-08-25T00:58:22.034Z,20.77
2022-08-25T01:01:24.043Z,20.68
2022-08-25T01:04:26.798Z,20.74
2022-08-25T01:07:28.735Z,20.71
2022-08-25T01:10:31.465Z,20.66
2022-08-25T01:13:45.627Z,20.63
2022-08-25T01:16:53.582Z,20.61
2022-08-25T01:19:56.025Z,20.51
2022-08-25T01:22:58.213Z,20.44
2022-08-25T01:26:13.492Z,20.33
2022-08-25T01:29:21.458Z,20.50
2022-08-25T01:32:23.995Z,20.46
2022-08-25T01:35:25.795Z,20.42
2022-08-25T01:38:27.981Z,20.36
2022-08-25T01:41:29.635Z,20.36
2022-08-25T01:44:35.943Z,20.17
2022-08-25T01:47:38.808Z,20.17
2022-08-25T01:50:41.979Z,20.25
2022-08-25T01:54:10.748Z,20.50
2022-08-25T01:57:12.691Z,20.35
2022-08-25T02:00:16.074Z,20.33
2022-08-25T02:03:21.429Z,20.45
2022-08-25T02:06:29.987Z,20.39
2022-08-25T02:09:33.018Z,20.28
2022-08-25T02:12:36.834Z,20.23
2022-08-25T02:15:48.291Z,20.23
2022-08-25T02:18:50.154Z,20.10
2022-08-25T02:21:52.048Z,20.06
2022-08-25T02:24:57.845Z,19.98
2022-08-25T02:28:00.151Z,19.92
2022-08-25T02:31:05.125Z,19.88
2022-08-25T02:34:08.924Z,19.86
2022-08-25T02:37:10.755Z,19.77
2022-08-25T02:40:12.862Z,19.68
2022-08-25T02:43:16.140Z,19.66
2022-08-25T02:46:20.401Z,19.66
2022-08-25T02:49:22.342Z,19.69
2022-08-25T02:52:25.346Z,19.57
2022-08-25T02:55:27.239Z,19.36
2022-08-25T02:58:29.186Z,19.41
2022-08-25T03:01:32.788Z,19.46
2022-08-25T03:04:34.730Z,19.32
2022-08-25T03:07:38.462Z,19.38
2022-08-25T03:10:41.720Z,19.31
2022-08-25T03:13:43.919Z,19.30
2022-08-25T03:16:46.375Z,19.40
2022-08-25T03:19:48.511Z,19.32
2022-08-25T03:22:50.573Z,19.38
2022-08-25T03:26:13.634Z,19.32
2022-08-25T03:29:15.573Z,19.30
2022-08-25T03:32:17.504Z,19.32
2022-08-25T03:35:20.032Z,19.30
2022-08-25T03:38:23.672Z,19.30
2022-08-25T03:41:29.185Z,19.25
2022-08-25T03:44:31.166Z,18.97
2022-08-25T03:47:32.960Z,19.01
2022-08-25T03:50:34.837Z,19.13
2022-08-25T03:53:36.689Z,19.00
2022-08-25T03:56:38.458Z,19.07
2022-08-25T03:59:40.508Z,19.01
2022-08-25T04:06:04.984Z,19.00
2022-08-25T04:09:07.858Z,18.98
2022-08-25T04:16:21.025Z,18.62
2022-08-25T04:19:29.075Z,18.77
2022-08-25T04:22:32.003Z,18.76
2022-08-25T04:25:44.208Z,18.69
2022-08-25T04:28:49.719Z,18.89
2022-08-25T04:31:53.477Z,19.00
2022-08-25T04:34:55.569Z,18.97
2022-08-25T04:37:57.367Z,18.93
2022-08-25T04:41:01.846Z,18.87
2022-08-25T04:44:04.308Z,18.87
2022-08-25T04:47:06.351Z,18.85
2022-08-25T04:50:08.803Z,18.87
2022-08-25T04:53:12.052Z,18.92
2022-08-25T04:56:16.130Z,18.86
2022-08-25T04:59:18.943Z,18.73
2022-08-25T05:02:21.094Z,18.89
2022-08-25T05:05:23.278Z,18.91
2022-08-25T05:08:25.717Z,18.98
2022-08-25T05:11:27.770Z,19.08
2022-08-25T05:14:29.707Z,19.07
2022-08-25T05:17:31.643Z,18.97
2022-08-25T05:20:37.577Z,19.02
2022-08-25T05:23:40.120Z,19.02
2022-08-25T05:26:41.900Z,18.98
2022-08-25T05:29:43.695Z,19.06
2022-08-25T05:32:45.526Z,19.04
2022-08-25T05:35:47.478Z,19.08
2022-08-25T05:38:49.579Z,19.08
2022-08-25T05:41:51.381Z,19.03
2022-08-25T05:44:53.261Z,19.03
2022-08-25T05:47:55.467Z,18.97
2022-08-25T05:51:00.108Z,19.00
2022-08-25T05:54:02.336Z,18.91
2022-08-25T05:57:04.292Z,19.00
2022-08-25T06:00:07.148Z,19.04
2022-08-25T06:03:14.622Z,18.89
2022-08-25T06:06:17.133Z,19.08
2022-08-25T06:09:18.811Z,18.91
2022-08-25T06:12:21.861Z,19.08
2022-08-25T06:15:25.299Z,18.86
2022-08-25T06:18:27.744Z,19.17
2022-08-25T06:21:29.867Z,19.20
2022-08-25T06:24:31.803Z,19.20
2022-08-25T06:27:34.591Z,19.33
2022-08-25T06:30:39.692Z,19.50
2022-08-25T06:33:41.779Z,19.66
2022-08-25T06:36:43.595Z,19.70
2022-08-25T06:39:51.460Z,19.95
2022-08-25T06:42:53.394Z,20.01
2022-08-25T06:45:55.663Z,20.20
2022-08-25T06:48:59.358Z,20.48
2022-08-25T06:52:02.236Z,20.75
2022-08-25T06:55:07.636Z,20.77
2022-08-25T06:58:10.187Z,20.96
2022-08-25T07:01:20.521Z,21.08
2022-08-25T07:04:23.326Z,21.34
2022-08-25T07:07:28.039Z,21.42
2022-08-25T07:10:48.135Z,21.40
2022-08-25T07:13:50.605Z,21.74
2022-08-25T07:16:53.169Z,22.00
2022-08-25T07:19:57.454Z,22.34
2022-08-25T07:22:59.651Z,22.66
2022-08-25T07:29:42.196Z,23.20
2022-08-25T07:32:45.138Z,23.43
2022-08-25T07:35:46.872Z,23.95
2022-08-25T07:38:50.109Z,24.04
2022-08-25T07:41:53.214Z,24.41
2022-08-25T07:44:55.099Z,24.82
2022-08-25T07:48:02.051Z,24.68
2022-08-25T07:51:10.065Z,24.94
2022-08-25T07:54:12.499Z,25.03
2022-08-25T07:57:14.372Z,24.97
2022-08-25T08:00:17.228Z,25.26
2022-08-25T08:03:35.423Z,25.26
2022-08-25T08:06:42.682Z,25.24
2022-08-25T08:09:45.646Z,25.41
2022-08-25T08:12:47.980Z,25.56
2022-08-25T08:15:53.701Z,25.88
2022-08-25T08:18:57.108Z,25.99
2022-08-25T08:22:02.310Z,26.15
2022-08-25T08:25:04.498Z,26.78
2022-08-25T08:28:12.638Z,26.94
2022-08-25T08:31:19.611Z,26.89
2022-08-25T08:34:24.765Z,26.96
2022-08-25T08:37:29.826Z,27.29
2022-08-25T08:40:41.952Z,27.46
2022-08-25T08:43:45.691Z,27.61
2022-08-25T08:46:54.027Z,27.90
2022-08-25T08:50:28.589Z,27.97
2022-08-25T08:53:39.052Z,28.10
2022-08-25T08:56:45.365Z,28.58
2022-08-25T08:59:58.297Z,28.96
2022-08-25T09:03:06.986Z,29.13
2022-08-25T09:06:20.601Z,28.89
2022-08-25T09:09:29.480Z,28.81
2022-08-25T09:12:38.167Z,28.72
2022-08-25T09:16:35.566Z,29.22
2022-08-25T09:19:56.006Z,29.47
2022-08-25T09:23:14.112Z,29.59
2022-08-25T09:26:39.811Z,29.81
2022-08-25T09:30:01.127Z,29.83
2022-08-25T09:33:08.129Z,29.75
2022-08-25T09:36:10.507Z,29.42
2022-08-25T09:39:13.017Z,29.59
2022-08-25T09:42:15.505Z,29.63
2022-08-25T09:45:42.308Z,29.79
2022-08-25T09:49:02.608Z,30.27
2022-08-25T09:52:28.939Z,30.62
2022-08-25T09:55:34.297Z,29.97
2022-08-25T09:58:37.320Z,30.43
2022-08-25T10:01:49.869Z,30.73
2022-08-25T10:04:52.473Z,30.92
2022-08-25T10:07:58.894Z,30.96
2022-08-25T10:11:06.550Z,30.87
2022-08-25T10:14:35.238Z,30.33
2022-08-25T10:17:37.787Z,30.54
2022-08-25T10:20:44.786Z,31.34
2022-08-25T10:23:57.669Z,31.42
2022-08-25T10:27:34.926Z,31.60
2022-08-25T10:31:05.091Z,31.41
2022-08-25T10:34:22.319Z,31.59
2022-08-25T10:37:43.690Z,31.60
2022-08-25T10:41:03.044Z,31.24
2022-08-25T10:44:48.985Z,31.45
2022-08-25T10:48:17.099Z,31.74
2022-08-25T10:51:54.975Z,31.48
2022-08-25T10:55:34.825Z,31.81
2022-08-25T10:58:54.530Z,31.86
2022-08-25T11:02:21.677Z,32.01
2022-08-25T11:06:01.980Z,31.62
2022-08-25T11:09:09.329Z,31.00
2022-08-25T11:12:31.808Z,30.88
2022-08-25T11:16:00.156Z,31.70
2022-08-25T11:19:19.311Z,31.68
2022-08-25T11:22:39.823Z,31.76
2022-08-25T11:25:49.498Z,32.28
2022-08-25T11:28:59.308Z,32.43
2022-08-25T11:32:02.043Z,31.59
2022-08-25T11:35:08.058Z,31.89
2022-08-25T11:38:40.736Z,31.96
2022-08-25T11:41:55.610Z,32.32
2022-08-25T11:45:00.849Z,32.51
2022-08-25T11:48:27.723Z,32.68
2022-08-25T11:51:41.405Z,32.78
2022-08-25T11:54:43.867Z,32.44
2022-08-25T11:57:53.125Z,32.94
2022-08-25T12:00:57.386Z,32.93
2022-08-25T12:04:44.269Z,33.47
2022-08-25T12:07:46.951Z,33.05
2022-08-25T12:10:54.799Z,32.91
2022-08-25T12:14:28.199Z,32.58
2022-08-25T12:17:39.476Z,32.46
2022-08-25T12:20:53.669Z,33.35
2022-08-25T12:24:04.063Z,32.21
2022-08-25T12:27:09.683Z,32.02
2022-08-25T12:30:26.141Z,33.36
2022-08-25T12:34:00.527Z,32.86
2022-08-25T12:37:14.214Z,34.19
2022-08-25T12:40:27.002Z,34.27
2022-08-25T12:43:37.346Z,34.27
2022-08-25T12:46:40.708Z,34.70
2022-08-25T12:49:42.863Z,34.66
2022-08-25T12:52:45.819Z,34.89
2022-08-25T12:55:57.432Z,34.64
2022-08-25T12:59:03.231Z,34.47
2022-08-25T13:02:29.762Z,34.76
2022-08-25T13:05:54.718Z,35.49
2022-08-25T13:09:13.699Z,35.27
2022-08-25T13:12:26.893Z,34.99
2022-08-25T13:15:41.100Z,34.61
2022-08-25T13:18:46.154Z,33.90
2022-08-25T13:21:54.832Z,34.43
2022-08-25T13:28:06.724Z,35.06
2022-08-25T13:31:19.050Z,34.41
2022-08-25T13:34:24.090Z,34.46
2022-08-25T13:37:37.396Z,34.65
2022-08-25T13:40:39.337Z,34.81
2022-08-25T13:43:45.783Z,33.67
2022-08-25T13:47:28.097Z,33.65
2022-08-25T13:50:42.649Z,34.68
2022-08-25T13:53:53.160Z,33.93
2022-08-25T13:57:42.681Z,34.57
2022-08-25T14:01:47.083Z,35.23
2022-08-25T14:04:52.758Z,34.97
2022-08-25T14:08:09.124Z,34.89
2022-08-25T14:11:27.956Z,34.85
2022-08-25T14:14:36.473Z,35.10
2022-08-25T14:17:43.057Z,35.24
2022-08-25T14:20:56.750Z,35.11
2022-08-25T14:23:58.871Z,34.74
2022-08-25T14:27:02.895Z,34.76
2022-08-25T14:30:06.427Z,35.16
2022-08-25T14:33:10.306Z,35.31
2022-08-25T14:36:12.144Z,35.93
2022-08-25T14:39:21.043Z,35.83
2022-08-25T14:42:29.601Z,35.29
2022-08-25T14:45:35.399Z,34.93
2022-08-25T14:48:44.318Z,34.25
2022-08-25T14:51:46.546Z,35.11
2022-08-25T14:54:48.296Z,35.37
2022-08-25T14:57:49.991Z,34.07
2022-08-25T15:00:53.306Z,34.46
2022-08-25T15:04:01.169Z,34.50
2022-08-25T15:07:23.473Z,34.35
2022-08-25T15:10:25.558Z,34.16
2022-08-25T15:13:28.313Z,34.01
2022-08-25T15:16:45.834Z,35.10
2022-08-25T15:19:50.897Z,35.49
2022-08-25T15:22:53.373Z,35.71
2022-08-25T15:25:56.955Z,35.75
2022-08-25T15:28:59.349Z,35.60
2022-08-25T15:32:03.451Z,34.79
2022-08-25T15:35:06.987Z,35.28
2022-08-25T15:38:09.875Z,34.75
2022-08-25T15:41:13.280Z,34.75
2022-08-25T15:44:15.119Z,35.00
2022-08-25T15:47:17.055Z,35.17
2022-08-25T15:50:25.751Z,35.01
2022-08-25T15:53:29.742Z,34.87
2022-08-25T15:56:31.697Z,35.09
2022-08-25T15:59:33.585Z,35.70
2022-08-25T16:02:35.700Z,34.87
2022-08-25T16:05:39.490Z,35.01
2022-08-25T16:08:47.907Z,34.91
2022-08-25T16:11:56.235Z,35.03
2022-08-25T16:14:59.949Z,34.61
2022-08-25T16:18:04.773Z,35.01
2022-08-25T16:21:12.502Z,35.06
2022-08-25T16:24:14.480Z,35.24
2022-08-25T16:27:18.566Z,34.95
2022-08-25T16:30:21.275Z,34.80
2022-08-25T16:33:23.013Z,34.52
2022-08-25T16:36:27.161Z,34.58
2022-08-25T16:39:30.185Z,34.64
2022-08-25T16:42:32.539Z,33.94
2022-08-25T16:45:51.962Z,33.83
2022-08-25T16:48:54.021Z,33.62
2022-08-25T16:51:57.995Z,33.45
2022-08-25T16:55:16.365Z,33.40
2022-08-25T16:58:18.297Z,33.18
2022-08-25T17:01:22.650Z,33.02
2022-08-25T17:04:29.509Z,32.99
2022-08-25T17:07:34.913Z,32.64
2022-08-25T17:10:39.672Z,32.43
2022-08-25T17:13:52.044Z,32.16
2022-08-25T17:16:55.250Z,32.22
2022-08-25T17:20:15.801Z,32.01
2022-08-25T17:23:20.994Z,32.15
2022-08-25T17:26:27.920Z,31.82
2022-08-25T17:29:30.711Z,31.98
2022-08-25T17:32:32.881Z,31.93
2022-08-25T17:35:39.328Z,31.50
2022-08-25T17:38:41.959Z,31.14
2022-08-25T17:41:45.156Z,31.17
2022-08-25T17:44:47.314Z,31.28
2022-08-25T17:47:49.383Z,31.08
2022-08-25T17:50:53.323Z,30.90
2022-08-25T17:53:56.162Z,30.71
2022-08-25T17:56:58.077Z,30.69
2022-08-25T18:00:00.294Z,30.53
2022-08-25T18:03:10.399Z,30.10
2022-08-25T18:06:15.121Z,29.79
2022-08-25T18:09:18.437Z,29.52
2022-08-25T18:12:20.328Z,29.26
2022-08-25T18:15:22.908Z,29.08
2022-08-25T18:18:24.859Z,28.75
2022-08-25T18:21:30.411Z,28.71
2022-08-25T18:24:35.874Z,28.43
2022-08-25T18:27:38.148Z,28.36
2022-08-25T18:30:41.291Z,28.28
2022-08-25T18:33:44.937Z,28.06
2022-08-25T18:36:46.614Z,28.02
2022-08-25T18:40:07.477Z,27.98
2022-08-25T18:43:12.225Z,27.83
2022-08-25T18:46:13.928Z,27.67
2022-08-25T18:49:17.538Z,27.58
2022-08-25T18:52:19.294Z,27.51
2022-08-25T18:55:22.993Z,27.41
2022-08-25T18:58:26.636Z,27.23
2022-08-25T19:01:28.737Z,27.23
2022-08-25T19:04:32.040Z,27.03
2022-08-25T19:07:33.804Z,26.93
2022-08-25T19:10:36.069Z,26.84
2022-08-25T19:13:38.900Z,26.67
2022-08-25T19:16:43.589Z,26.63
2022-08-25T19:19:45.623Z,26.58
2022-08-25T19:22:47.984Z,26.56
2022-08-25T19:25:49.881Z,26.49
2022-08-25T19:28:52.738Z,26.15
2022-08-25T19:31:55.248Z,26.15
2022-08-25T19:34:57.164Z,26.20
2022-08-25T19:38:00.862Z,26.15
2022-08-25T19:41:10.458Z,26.08
2022-08-25T19:44:16.696Z,26.08
2022-08-25T19:47:18.929Z,25.90
2022-08-25T19:50:23.357Z,25.74
2022-08-25T19:53:25.773Z,25.64
2022-08-25T19:56:27.486Z,25.56
2022-08-25T19:59:40.775Z,25.50
2022-08-25T20:02:45.984Z,25.48
2022-08-25T20:05:49.089Z,25.39
2022-08-25T20:08:58.958Z,25.27
2022-08-25T20:12:02.488Z,25.23
2022-08-25T20:15:05.569Z,25.15
2022-08-25T20:18:07.879Z,25.07
2022-08-25T20:21:10.316Z,25.01
2022-08-25T20:24:30.786Z,24.95
2022-08-25T20:27:38.742Z,24.76
2022-08-25T20:30:44.077Z,24.76
2022-08-25T20:33:46.934Z,24.70
2022-08-25T20:36:50.660Z,24.68
2022-08-25T20:39:57.234Z,24.54
2022-08-25T20:43:05.134Z,24.44
2022-08-25T20:46:12.382Z,24.54
2022-08-25T20:49:15.404Z,24.48
2022-08-25T20:52:18.495Z,24.19
2022-08-25T20:55:23.430Z,24.13
2022-08-25T20:58:26.501Z,24.31
2022-08-25T21:01:44.836Z,24.18
2022-08-25T21:05:01.446Z,23.85
2022-08-25T21:08:03.457Z,23.84
2022-08-25T21:11:22.508Z,24.02
2022-08-25T21:14:26.276Z,23.87
2022-08-25T21:17:40.422Z,23.64
2022-08-25T21:20:42.094Z,23.51
2022-08-25T21:23:53.149Z,23.56
2022-08-25T21:26:56.470Z,23.42
2022-08-25T21:30:04.581Z,23.51
2022-08-25T21:33:10.692Z,23.47
2022-08-25T21:40:46.059Z,23.35
2022-08-25T21:43:53.893Z,23.50
2022-08-25T21:46:56.242Z,23.41
2022-08-25T21:49:58.018Z,23.25
2022-08-25T21:53:02.507Z,23.06
2022-08-25T21:56:29.312Z,23.20
2022-08-25T21:59:37.666Z,22.98
2022-08-25T22:02:39.578Z,22.93
2022-08-25T22:05:45.722Z,23.03
2022-08-25T22:09:10.090Z,23.02
2022-08-25T22:12:12.244Z,23.39
2022-08-25T22:15:21.428Z,23.39
2022-08-25T22:18:27.217Z,23.34
2022-08-25T22:21:33.554Z,23.41
2022-08-25T22:24:35.411Z,23.27
2022-08-25T22:27:38.544Z,23.06
2022-08-25T22:30:48.861Z,23.07
2022-08-25T22:34:03.625Z,22.92
2022-08-25T22:37:14.234Z,23.16
2022-08-25T22:40:45.724Z,23.38
2022-08-25T22:43:49.923Z,23.23
2022-08-25T22:47:09.239Z,23.10
2022-08-25T22:50:24.297Z,22.90
2022-08-25T22:53:46.574Z,22.86
2022-08-25T22:57:03.388Z,22.72
2022-08-25T23:00:11.064Z,22.53
2022-08-25T23:03:12.985Z,22.52
2022-08-25T23:06:24.753Z,22.54
2022-08-25T23:09:26.584Z,22.43
2022-08-25T23:12:32.600Z,22.38
2022-08-25T23:15:34.489Z,22.28
2022-08-25T23:18:46.595Z,22.26
2022-08-25T23:26:36.249Z,22.23
2022-08-25T23:29:51.320Z,22.15
2022-08-25T23:33:18.901Z,22.54
2022-08-25T23:36:21.988Z,22.61
2022-08-25T23:39:24.650Z,22.38
2022-08-25T23:42:35.453Z,22.31
2022-08-25T23:45:39.986Z,22.33
2022-08-25T23:48:42.939Z,22.27
2022-08-25T23:51:46.931Z,22.18
2022-08-25T23:54:48.770Z,22.18
2022-08-25T23:57:51.701Z,22.03
